Time;durP1;ratioP1;P1;durP2;ratioP2;P2;SDS_P1;SDS_P2;PMS_P1;PMS_P2;Temp;Humidity;BMP_temperature;BMP_pressure;BME280_temperature;BME280_humidity;BME280_pressure;Samples;Min_cycle;Max_cycle;Signal;HPM_P1;HPM_P2
2022/08/29 00:00:37;;;;;;;7.90;6.75;;;;;;;17.63;100.00;100404.73;2613813;87;21314;-91
2022/08/29 00:04:40;;;;;;;15.93;7.28;;;;;;;17.67;100.00;100399.34;2615047;87;21042;-92
2022/08/29 00:08:42;;;;;;;23.07;7.47;;;;;;;17.65;100.00;100403.56;2614353;88;21039;-92
2022/08/29 00:12:43;;;;;;;20.43;6.22;;;;;;;17.70;100.00;100401.72;2623055;88;21101;-92
2022/08/29 00:16:45;;;;;;;18.52;8.18;;;;;;;17.73;100.00;100406.75;2623061;88;21050;-92
2022/08/29 00:20:46;;;;;;;11.55;7.47;;;;;;;17.67;100.00;100408.27;2620052;88;21101;-91
2022/08/29 00:24:48;;;;;;;11.35;7.08;;;;;;;17.70;100.00;100409.27;2606322;87;21550;-92
2022/08/29 00:28:49;;;;;;;8.45;6.37;;;;;;;17.75;100.00;100411.94;2602040;89;21147;-92
2022/08/29 00:32:51;;;;;;;11.90;7.10;;;;;;;17.72;100.00;100414.98;2620512;89;21090;-91
2022/08/29 00:36:53;;;;;;;12.75;7.22;;;;;;;17.48;100.00;100415.33;2649927;87;21116;-91
2022/08/29 00:40:57;;;;;;;12.53;6.87;;;;;;;17.47;100.00;100420.37;2618357;88;21083;-92
2022/08/29 00:44:58;;;;;;;9.88;6.40;;;;;;;17.53;100.00;100422.38;2614974;88;21087;-92
2022/08/29 00:49:08;;;;;;;10.98;6.50;;;;;;;17.65;100.00;100423.73;2609834;87;21062;-92
2022/08/29 00:53:15;;;;;;;18.62;7.45;;;;;;;17.69;100.00;100426.94;2621974;88;21126;-92
2022/08/29 00:57:20;;;;;;;18.10;6.58;;;;;;;17.77;100.00;100422.03;2632871;89;21089;-91
2022/08/29 01:01:22;;;;;;;9.58;6.72;;;;;;;17.76;100.00;100426.59;2612285;88;21150;-91
2022/08/29 01:05:25;;;;;;;10.63;5.83;;;;;;;17.74;100.00;100419.19;2612868;87;21624;-92
2022/08/29 01:09:28;;;;;;;9.60;6.95;;;;;;;17.78;100.00;100423.70;2619438;87;21063;-92
2022/08/29 01:13:34;;;;;;;10.03;5.85;;;;;;;17.81;100.00;100425.56;2617165;87;21066;-92
2022/08/29 01:17:43;;;;;;;14.73;6.95;;;;;;;17.82;100.00;100425.89;2640115;88;21058;-92
2022/08/29 01:21:49;;;;;;;13.40;7.30;;;;;;;17.82;100.00;100418.34;2621435;87;21089;-91
2022/08/29 01:25:51;;;;;;;10.35;5.95;;;;;;;17.72;100.00;100419.02;2625093;87;21012;-92
2022/08/29 01:29:52;;;;;;;14.60;7.78;;;;;;;17.70;100.00;100424.58;2608369;88;21105;-93
2022/08/29 01:33:58;;;;;;;9.53;5.83;;;;;;;17.73;100.00;100420.69;2605535;88;21119;-92
2022/08/29 01:37:59;;;;;;;10.03;6.58;;;;;;;17.67;100.00;100419.52;2583573;89;21102;-92
2022/08/29 01:42:15;;;;;;;21.02;6.62;;;;;;;17.62;100.00;100413.32;2619506;87;21158;-92
2022/08/29 01:46:21;;;;;;;12.50;6.17;;;;;;;17.62;100.00;100417.84;2613430;89;21119;-93
2022/08/29 01:50:23;;;;;;;16.62;7.90;;;;;;;17.60;100.00;100412.66;2611482;88;21654;-93
2022/08/29 01:54:24;;;;;;;11.95;7.10;;;;;;;17.54;100.00;100410.62;2627184;88;21114;-93
2022/08/29 01:58:25;;;;;;;14.68;6.85;;;;;;;17.39;100.00;100415.83;2559451;88;21396;-93
2022/08/29 02:02:28;;;;;;;12.98;7.17;;;;;;;17.33;100.00;100419.20;2533307;90;21625;-92
2022/08/29 02:06:30;;;;;;;15.15;7.58;;;;;;;17.28;100.00;100427.76;2591513;90;21050;-92
2022/08/29 02:10:31;;;;;;;13.32;7.50;;;;;;;17.16;100.00;100429.93;2572040;90;21599;-91
2022/08/29 02:14:35;;;;;;;11.53;6.72;;;;;;;16.94;100.00;100426.84;2592064;90;21062;-92
2022/08/29 02:18:37;;;;;;;11.95;7.75;;;;;;;16.85;100.00;100431.83;2596283;89;21105;-92
2022/08/29 02:22:39;;;;;;;17.10;7.42;;;;;;;16.74;100.00;100434.31;2579249;90;21050;-93
2022/08/29 02:26:41;;;;;;;12.07;7.30;;;;;;;16.54;100.00;100435.92;2612852;90;21046;-93
2022/08/29 02:30:47;;;;;;;16.00;8.08;;;;;;;16.31;100.00;100436.16;2607186;90;21070;-94
2022/08/29 02:34:49;;;;;;;11.88;6.83;;;;;;;16.30;100.00;100432.61;2547243;90;21122;-93
2022/08/29 02:38:50;;;;;;;13.60;8.08;;;;;;;16.35;100.00;100433.48;2527515;92;21038;-93
2022/08/29 02:42:52;;;;;;;12.03;7.20;;;;;;;16.38;100.00;100429.98;2626291;88;21070;-94
2022/08/29 02:46:53;;;;;;;14.70;8.20;;;;;;;16.38;100.00;100431.81;2631100;89;21055;-93
2022/08/29 02:51:01;;;;;;;10.70;7.30;;;;;;;16.37;100.00;100435.50;2609503;88;21055;-93
2022/08/29 02:55:00;;;;;;;11.83;7.60;;;;;;;16.36;100.00;100432.00;2617664;87;21603;-93
2022/08/29 02:59:01;;;;;;;12.88;6.87;;;;;;;16.39;100.00;100430.81;2644806;88;21119;-94
2022/08/29 03:03:03;;;;;;;7.70;6.85;;;;;;;16.37;100.00;100427.45;2644155;87;21094;-93
2022/08/29 03:07:04;;;;;;;9.65;5.53;;;;;;;16.36;100.00;100425.77;2630009;88;21073;-94
2022/08/29 03:11:06;;;;;;;6.03;5.17;;;;;;;16.18;100.00;100422.66;2621705;88;21058;-95
2022/08/29 03:15:09;;;;;;;9.98;6.62;;;;;;;16.15;100.00;100415.45;2596475;89;21480;-90
2022/08/29 03:19:10;;;;;;;15.75;8.00;;;;;;;16.05;100.00;100425.77;2623456;88;21222;-90
2022/08/29 03:23:11;;;;;;;9.03;5.92;;;;;;;15.94;100.00;100432.77;2612845;88;21657;-87
2022/08/29 03:27:13;;;;;;;9.48;5.30;;;;;;;15.81;100.00;100421.91;2627258;88;21092;-87
2022/08/29 03:31:14;;;;;;;9.38;6.22;;;;;;;15.77;100.00;100425.05;2630908;87;21090;-87
2022/08/29 03:35:18;;;;;;;9.40;5.12;;;;;;;15.75;100.00;100431.93;2640453;87;21057;-87
2022/08/29 03:39:19;;;;;;;12.33;6.92;;;;;;;15.80;100.00;100429.61;2620035;88;22213;-87
2022/08/29 03:43:20;;;;;;;10.18;6.53;;;;;;;15.72;100.00;100441.59;2596570;90;21046;-87
2022/08/29 03:47:22;;;;;;;8.00;5.67;;;;;;;15.64;100.00;100445.09;2601693;89;21653;-87
2022/08/29 03:51:23;;;;;;;8.65;5.30;;;;;;;15.65;100.00;100446.77;2553118;92;21131;-87
2022/08/29 03:55:25;;;;;;;12.33;5.22;;;;;;;15.70;100.00;100451.16;2595988;90;21273;-87
2022/08/29 03:59:26;;;;;;;11.83;5.78;;;;;;;15.66;100.00;100449.80;2594133;90;21063;-87
2022/08/29 04:03:28;;;;;;;8.58;5.62;;;;;;;15.49;100.00;100456.01;2612339;89;21127;-85
2022/08/29 04:07:30;;;;;;;11.20;6.35;;;;;;;15.37;100.00;100467.46;2548621;90;21121;-85
2022/08/29 04:11:32;;;;;;;14.07;7.45;;;;;;;15.33;100.00;100466.92;2618816;89;21094;-87
2022/08/29 04:15:35;;;;;;;12.85;6.92;;;;;;;15.30;100.00;100465.03;2536632;91;21897;-86
2022/08/29 04:19:36;;;;;;;10.80;7.05;;;;;;;15.31;100.00;100473.41;2549562;90;21603;-87
2022/08/29 04:23:39;;;;;;;9.25;7.28;;;;;;;15.26;100.00;100484.09;2537100;90;21075;-87
2022/08/29 04:27:41;;;;;;;12.58;7.17;;;;;;;15.30;100.00;100489.15;2549291;91;21075;-88
2022/08/29 04:31:43;;;;;;;11.80;6.62;;;;;;;15.32;100.00;100483.99;2542200;91;21098;-88
2022/08/29 04:35:44;;;;;;;11.35;7.20;;;;;;;15.43;100.00;100485.60;2566001;89;21089;-88
2022/08/29 04:39:45;;;;;;;10.90;6.08;;;;;;;15.74;100.00;100484.36;2624442;87;21062;-88
2022/08/29 04:43:47;;;;;;;8.33;6.08;;;;;;;16.06;100.00;100476.27;2620397;88;21093;-88
2022/08/29 04:47:48;;;;;;;11.08;5.80;;;;;;;16.33;100.00;100477.09;2657023;88;21065;-88
2022/08/29 04:51:52;;;;;;;10.98;5.80;;;;;;;16.61;100.00;100481.77;2625110;88;21077;-88
2022/08/29 04:56:05;;;;;;;5.72;5.08;;;;;;;16.80;100.00;100493.27;2601136;89;21070;-88
2022/08/29 05:00:15;;;;;;;6.50;5.35;;;;;;;17.02;100.00;100497.26;2572852;90;21254;-88
2022/08/29 05:04:17;;;;;;;8.38;5.62;;;;;;;17.30;100.00;100502.88;2537083;90;21108;-88
2022/08/29 05:08:19;;;;;;;10.50;5.15;;;;;;;17.45;100.00;100495.83;2550988;91;21347;-88
2022/08/29 05:12:21;;;;;;;10.50;6.35;;;;;;;17.56;100.00;100500.89;2567036;91;21130;-88
2022/08/29 05:16:23;;;;;;;8.38;6.03;;;;;;;17.93;100.00;100505.95;2512660;91;21641;-89
2022/08/29 05:20:24;;;;;;;11.60;5.17;;;;;;;18.25;100.00;100505.59;2549429;91;21587;-88
2022/08/29 05:24:25;;;;;;;8.88;5.70;;;;;;;18.51;100.00;100507.23;2544249;91;21364;-88
2022/08/29 05:28:29;;;;;;;12.80;5.05;;;;;;;18.74;100.00;100503.27;2566408;90;21166;-88
2022/08/29 05:32:32;;;;;;;7.78;5.03;;;;;;;18.74;97.31;100503.27;2558706;90;31570;-88
2022/08/29 05:36:33;;;;;;;7.25;5.50;;;;;;;18.77;96.28;100506.98;2563017;89;21122;-88
2022/08/29 05:40:36;;;;;;;9.28;5.90;;;;;;;18.65;97.74;100509.19;2590487;90;21545;-88
2022/08/29 05:44:38;;;;;;;9.05;5.87;;;;;;;18.43;96.09;100509.94;2591990;90;21090;-88
2022/08/29 05:48:41;;;;;;;11.68;4.10;;;;;;;18.58;97.47;100507.39;2567956;91;21070;-88
2022/08/29 05:52:43;;;;;;;7.60;5.17;;;;;;;18.74;96.68;100521.30;2606856;89;21043;-88
2022/08/29 05:56:44;;;;;;;12.47;6.70;;;;;;;18.70;92.81;100527.05;2601530;89;21101;-88
2022/08/29 06:00:46;;;;;;;8.70;4.20;;;;;;;18.85;93.46;100522.25;2602329;90;21084;-88
2022/08/29 06:04:48;;;;;;;9.35;4.03;;;;;;;19.03;93.59;100529.29;2594657;90;21165;-88
2022/08/29 06:08:51;;;;;;;8.63;4.25;;;;;;;19.21;95.23;100537.96;2602980;89;21123;-89
2022/08/29 06:12:53;;;;;;;12.70;4.45;;;;;;;19.36;90.26;100539.91;2601564;89;21175;-89
2022/08/29 06:16:54;;;;;;;7.42;4.20;;;;;;;19.23;90.95;100542.67;2609472;90;21024;-88
2022/08/29 06:20:56;;;;;;;9.73;4.92;;;;;;;19.07;91.80;100544.12;2602624;89;21106;-88
2022/08/29 06:24:57;;;;;;;6.20;3.60;;;;;;;19.21;89.18;100540.66;2602765;91;21176;-88
2022/08/29 06:28:58;;;;;;;36.00;4.58;;;;;;;19.24;93.13;100547.05;2595832;89;21655;-88
2022/08/29 06:33:01;;;;;;;7.05;4.05;;;;;;;19.29;90.93;100555.95;2605318;89;21045;-88
2022/08/29 06:37:02;;;;;;;5.60;4.00;;;;;;;19.22;86.96;100561.22;2561362;90;21182;-88
2022/08/29 06:41:11;;;;;;;10.65;5.08;;;;;;;19.10;91.17;100563.98;2590127;90;21705;-88
2022/08/29 06:45:13;;;;;;;7.62;3.67;;;;;;;19.18;89.58;100565.28;2601872;89;21141;-88
2022/08/29 06:49:16;;;;;;;10.55;5.08;;;;;;;19.24;91.47;100570.48;2601202;91;21073;-88
2022/08/29 06:53:18;;;;;;;14.50;5.58;;;;;;;19.48;89.71;100573.57;2573407;90;21075;-88
2022/08/29 06:57:20;;;;;;;11.12;4.05;;;;;;;19.63;91.69;100575.48;2549286;91;21095;-88
2022/08/29 07:01:22;;;;;;;13.60;4.85;;;;;;;19.90;85.25;100570.06;2596571;89;21630;-89
2022/08/29 07:05:24;;;;;;;7.00;3.67;;;;;;;19.85;88.07;100576.52;2602720;90;21087;-88
2022/08/29 07:09:25;;;;;;;6.83;3.72;;;;;;;20.07;87.43;100579.42;2601681;90;21054;-88
2022/08/29 07:13:26;;;;;;;10.38;3.60;;;;;;;19.90;85.72;100575.99;2604832;90;21076;-89
2022/08/29 07:17:28;;;;;;;7.10;3.92;;;;;;;19.91;86.34;100589.81;2601369;89;21073;-88
2022/08/29 07:21:30;;;;;;;7.20;3.17;;;;;;;20.01;85.28;100589.61;2604844;90;21124;-88
2022/08/29 07:25:31;;;;;;;8.25;3.95;;;;;;;19.76;88.44;100598.68;2642624;88;21702;-88
2022/08/29 07:29:32;;;;;;;8.08;3.50;;;;;;;19.87;83.89;100591.20;2623348;88;21049;-88
2022/08/29 07:33:34;;;;;;;4.40;3.83;;;;;;;20.10;85.92;100589.36;2638360;88;21098;-88
2022/08/29 07:37:35;;;;;;;9.08;4.22;;;;;;;20.10;86.37;100589.36;2606669;88;21136;-88
2022/08/29 07:41:38;;;;;;;7.05;4.05;;;;;;;20.03;83.72;100585.69;2615660;89;21066;-88
2022/08/29 07:45:40;;;;;;;9.40;3.25;;;;;;;20.09;84.88;100598.48;2613513;87;21142;-88
2022/08/29 07:49:41;;;;;;;6.20;3.40;;;;;;;20.02;79.47;100593.45;2637228;89;21333;-88
2022/08/29 07:53:43;;;;;;;5.90;3.42;;;;;;;20.02;84.20;100600.20;2620039;88;21103;-88
2022/08/29 07:57:47;;;;;;;7.97;3.27;;;;;;;19.90;81.72;100600.29;2630986;89;21347;-88
2022/08/29 08:01:48;;;;;;;5.78;3.22;;;;;;;20.11;85.31;100599.14;2596155;90;21092;-88
2022/08/29 08:05:50;;;;;;;7.35;3.45;;;;;;;20.14;81.52;100605.20;2638433;89;21635;-88
2022/08/29 08:09:52;;;;;;;6.45;3.75;;;;;;;20.17;81.15;100599.42;2631308;87;21102;-88
2022/08/29 08:13:54;;;;;;;7.53;3.52;;;;;;;20.25;87.54;100610.17;2595375;89;21079;-88
2022/08/29 08:17:56;;;;;;;9.35;3.83;;;;;;;20.36;82.54;100599.45;2609107;88;21651;-88
2022/08/29 08:21:58;;;;;;;10.18;4.05;;;;;;;20.47;79.81;100608.97;2614750;87;21054;-88
2022/08/29 08:26:00;;;;;;;22.07;4.28;;;;;;;20.29;78.28;100606.09;2600534;90;21107;-88
2022/08/29 08:30:03;;;;;;;8.73;4.35;;;;;;;20.28;79.44;100609.81;2600463;90;21066;-89
2022/08/29 08:34:04;;;;;;;5.17;2.75;;;;;;;20.29;81.26;100610.14;2598351;89;21093;-88
2022/08/29 08:38:10;;;;;;;11.33;4.22;;;;;;;20.25;80.17;100612.88;2587286;90;21081;-88
2022/08/29 08:42:21;;;;;;;7.55;3.62;;;;;;;20.57;78.91;100605.48;2606921;89;21093;-88
2022/08/29 08:46:42;;;;;;;10.55;5.10;;;;;;;20.51;78.71;100612.45;2596689;89;21049;-88
2022/08/29 08:50:55;;;;;;;6.95;3.58;;;;;;;20.71;76.78;100613.80;2603513;90;21093;-88
2022/08/29 08:55:02;;;;;;;7.85;3.17;;;;;;;20.73;76.80;100601.75;2559612;91;21664;-88
2022/08/29 08:59:28;;;;;;;4.00;2.30;;;;;;;20.71;75.76;100609.22;2552405;91;21679;-88
2022/08/29 09:04:18;;;;;;;6.95;3.65;;;;;;;20.69;76.53;100604.02;2554314;90;21149;-88
2022/08/29 09:08:51;;;;;;;11.12;3.90;;;;;;;20.77;73.94;100605.80;2598608;89;21154;-88
2022/08/29 09:13:22;;;;;;;5.08;2.92;;;;;;;20.98;75.82;100611.00;2553393;90;21630;-88
2022/08/29 09:17:35;;;;;;;3.87;2.50;;;;;;;20.64;74.16;100607.79;2567916;91;21334;-88
2022/08/29 09:21:54;;;;;;;6.08;3.47;;;;;;;20.79;78.82;100602.88;2561042;90;21639;-88
2022/08/29 09:25:55;;;;;;;7.40;3.52;;;;;;;20.90;76.34;100606.52;2567449;90;21146;-89
2022/08/29 09:30:14;;;;;;;12.40;4.12;;;;;;;21.10;74.55;100599.20;2576498;90;21132;-89
2022/08/29 09:34:21;;;;;;;6.78;3.60;;;;;;;21.23;77.73;100602.08;2571578;90;21272;-89
2022/08/29 09:38:24;;;;;;;5.62;2.92;;;;;;;21.25;77.89;100607.28;2564163;90;21089;-89
2022/08/29 09:42:35;;;;;;;9.25;3.70;;;;;;;21.23;73.20;100598.03;2539551;90;21099;-88
2022/08/29 09:46:36;;;;;;;8.15;3.27;;;;;;;21.23;75.39;100607.99;2541804;91;21526;-88
2022/08/29 09:50:38;;;;;;;7.55;2.65;;;;;;;21.46;76.52;100603.81;2600876;89;21086;-88
2022/08/29 09:54:40;;;;;;;7.87;3.10;;;;;;;21.46;71.62;100606.52;2657331;88;21057;-88
2022/08/29 09:58:42;;;;;;;8.53;2.80;;;;;;;21.71;75.40;100605.34;2612257;87;21519;-88
2022/08/29 10:02:47;;;;;;;12.53;3.52;;;;;;;21.70;71.79;100607.22;2686210;87;21080;-88
2022/08/29 10:06:48;;;;;;;;;;;;;;;21.79;72.55;100612.83;2642355;87;21999;-88
2022/08/29 10:10:55;;;;;;;8.05;4.45;;;;;;;21.79;74.66;100602.53;2657027;88;20153;-88
2022/08/29 10:15:01;;;;;;;7.28;3.87;;;;;;;22.01;75.65;100605.23;2661227;88;21090;-89
2022/08/29 10:19:08;;;;;;;6.12;3.02;;;;;;;21.91;70.68;100599.64;2673028;88;21074;-88
2022/08/29 10:23:45;;;;;;;20.52;3.85;;;;;;;21.87;73.85;100602.39;2616420;89;21027;-89
2022/08/29 10:28:04;;;;;;;5.70;2.85;;;;;;;22.01;71.07;100595.26;2626666;88;21143;-88
2022/08/29 10:32:55;;;;;;;6.70;3.55;;;;;;;22.14;72.41;100593.68;2617337;88;21134;-88
2022/08/29 10:37:01;;;;;;;5.55;2.75;;;;;;;22.31;70.69;100597.80;2637545;88;21137;-88
2022/08/29 10:41:19;;;;;;;9.30;2.70;;;;;;;22.22;72.74;100601.16;2662326;87;21075;-88
2022/08/29 10:45:44;;;;;;;4.92;3.10;;;;;;;22.17;70.38;100591.93;2632436;88;21504;-88
2022/08/29 10:50:03;;;;;;;27.00;4.53;;;;;;;22.26;69.99;100597.55;2644629;88;21109;-89
2022/08/29 10:54:31;;;;;;;3.33;2.52;;;;;;;22.45;70.16;100593.84;2592443;90;21079;-88
2022/08/29 10:58:47;;;;;;;4.22;2.42;;;;;;;22.48;71.79;100583.98;2602805;89;21727;-88
2022/08/29 11:03:08;;;;;;;6.17;3.27;;;;;;;22.72;67.18;100588.12;2599657;90;21151;-88
2022/08/29 11:07:21;;;;;;;12.78;3.27;;;;;;;22.74;65.53;100590.61;2608295;89;21094;-88
2022/08/29 11:11:25;;;;;;;4.75;2.85;;;;;;;22.92;68.59;100598.24;2601054;89;21203;-88
2022/08/29 11:16:00;;;;;;;5.75;2.45;;;;;;;22.79;65.38;100586.78;2610669;89;21168;-88
2022/08/29 11:20:19;;;;;;;7.90;4.12;;;;;;;22.89;69.10;100585.91;2610406;88;21635;-88
2022/08/29 11:24:22;;;;;;;3.62;3.00;;;;;;;22.87;67.29;100581.21;2548036;91;21141;-88
2022/08/29 11:28:44;;;;;;;7.95;3.30;;;;;;;22.95;69.95;100589.17;2541853;90;21265;-88
2022/08/29 11:33:05;;;;;;;6.35;3.75;;;;;;;23.07;69.98;100598.92;2490402;94;21638;-88
2022/08/29 11:37:50;;;;;;;6.12;3.00;;;;;;;23.27;67.30;100591.42;2502227;92;21107;-88
2022/08/29 11:42:00;;;;;;;6.35;3.58;;;;;;;23.19;67.79;100592.44;2515263;93;21134;-88
2022/08/29 11:46:06;;;;;;;6.17;3.60;;;;;;;23.13;64.40;100584.27;2462984;94;21130;-88
2022/08/29 11:50:22;;;;;;;;;;;;;;;23.27;64.12;100587.89;2429153;96;21148;-88
2022/08/29 11:54:28;;;;;;;6.87;4.92;;;;;;;23.27;64.78;100586.53;2507877;92;20127;-88
2022/08/29 11:58:42;;;;;;;5.45;3.85;;;;;;;23.42;66.80;100586.37;2504835;94;21096;-88
2022/08/29 12:02:43;;;;;;;5.80;3.47;;;;;;;23.53;68.98;100577.66;2524754;92;21203;-88
2022/08/29 12:07:02;;;;;;;6.30;4.05;;;;;;;23.39;64.25;100570.81;2547729;92;21087;-88
2022/08/29 12:11:05;;;;;;;5.53;3.75;;;;;;;23.35;64.20;100568.70;2633621;87;21064;-88
2022/08/29 12:15:32;;;;;;;5.67;3.55;;;;;;;23.51;62.73;100576.48;2620127;88;21042;-88
2022/08/29 12:19:57;;;;;;;6.42;3.45;;;;;;;23.60;64.06;100573.59;2624886;89;21089;-88
2022/08/29 12:23:59;;;;;;;8.83;3.83;;;;;;;23.66;64.42;100568.16;2599602;87;21109;-88
2022/08/29 12:28:22;;;;;;;4.35;2.92;;;;;;;23.64;65.62;100574.31;2619389;88;21065;-88
2022/08/29 12:32:44;;;;;;;5.05;3.12;;;;;;;23.64;64.87;100569.42;2622048;88;21102;-88
2022/08/29 12:36:59;;;;;;;6.70;3.37;;;;;;;23.71;62.91;100558.05;2652758;88;21058;-88
2022/08/29 12:41:06;;;;;;;4.17;2.58;;;;;;;23.68;63.02;100553.03;2650202;88;21059;-88
2022/08/29 12:45:26;;;;;;;11.65;4.15;;;;;;;23.61;62.40;100554.91;2642253;87;21611;-88
2022/08/29 12:49:30;;;;;;;7.15;3.05;;;;;;;23.76;64.01;100552.82;2627388;87;21109;-88
2022/08/29 12:53:34;;;;;;;5.30;3.12;;;;;;;23.89;62.41;100557.96;2638740;87;21216;-88
2022/08/29 12:57:37;;;;;;;6.70;3.55;;;;;;;23.91;61.86;100545.86;2614628;87;21078;-88
2022/08/29 13:01:39;;;;;;;9.90;5.17;;;;;;;24.06;61.75;100544.83;2654003;88;21118;-88
2022/08/29 13:05:41;;;;;;;6.65;3.87;;;;;;;24.06;60.76;100541.60;2656804;88;21011;-89
2022/08/29 13:09:53;;;;;;;6.92;2.85;;;;;;;24.14;60.85;100534.27;2636997;88;21086;-88
2022/08/29 13:14:09;;;;;;;3.60;2.55;;;;;;;23.98;59.92;100517.84;2640018;88;21055;-88
2022/08/29 13:18:14;;;;;;;;;;;;;;;23.92;64.28;100538.53;2589143;90;21080;-88
2022/08/29 13:22:17;;;;;;;8.60;3.35;;;;;;;24.02;62.48;100530.84;2580324;89;20219;-89
2022/08/29 13:26:22;;;;;;;3.72;2.67;;;;;;;24.08;64.51;100534.07;2612154;89;21072;-89
2022/08/29 13:30:24;;;;;;;5.97;3.60;;;;;;;24.19;63.79;100535.32;2549273;90;21736;-91
2022/08/29 13:34:26;;;;;;;5.50;2.95;;;;;;;24.35;60.49;100517.73;2563114;90;21179;-91
2022/08/29 13:38:28;;;;;;;7.53;4.10;;;;;;;24.38;61.97;100506.97;2568624;92;21074;-89
2022/08/29 13:42:31;;;;;;;9.13;3.52;;;;;;;24.29;61.14;100508.25;2619812;87;21622;-88
2022/08/29 13:46:32;;;;;;;10.00;4.45;;;;;;;24.29;63.38;100504.99;2651579;87;21074;-90
2022/08/29 13:50:33;;;;;;;6.42;2.95;;;;;;;24.38;62.61;100501.02;2631366;88;21122;-89
2022/08/29 13:54:36;;;;;;;5.90;3.58;;;;;;;24.51;59.80;100499.30;2641292;87;21441;-87
2022/08/29 13:58:37;;;;;;;4.58;3.00;;;;;;;24.44;60.61;100499.85;2608409;89;21058;-87
2022/08/29 14:02:40;;;;;;;6.53;3.67;;;;;;;24.59;60.89;100499.08;2617032;88;21059;-90
2022/08/29 14:06:41;;;;;;;24.20;4.00;;;;;;;24.64;62.51;100491.11;2663444;88;21581;-90
2022/08/29 14:10:42;;;;;;;6.90;4.10;;;;;;;24.64;62.39;100497.91;2638895;88;21152;-88
2022/08/29 14:14:45;;;;;;;6.87;3.45;;;;;;;24.64;61.96;100492.47;2624851;88;21106;-90
2022/08/29 14:18:48;;;;;;;13.80;3.05;;;;;;;24.64;61.12;100496.55;2550707;91;21059;-90
2022/08/29 14:22:50;;;;;;;6.00;2.47;;;;;;;24.59;57.54;100495.00;2540213;91;21134;-89
2022/08/29 14:26:51;;;;;;;6.95;2.37;;;;;;;24.58;57.07;100498.77;2631935;87;21120;-90
2022/08/29 14:30:52;;;;;;;6.55;3.08;;;;;;;24.52;56.30;100498.25;2609656;88;21090;-90
2022/08/29 14:34:54;;;;;;;9.33;3.65;;;;;;;24.55;57.03;100499.17;2613649;87;21575;-91
2022/08/29 14:38:55;;;;;;;5.97;2.72;;;;;;;24.66;60.06;100499.89;2612512;88;21021;-91
2022/08/29 14:42:59;;;;;;;6.28;3.58;;;;;;;24.63;59.44;100489.44;2625855;89;21093;-91
2022/08/29 14:47:00;;;;;;;3.52;2.05;;;;;;;24.65;59.29;100490.06;2641724;88;21082;-88
2022/08/29 14:51:02;;;;;;;6.72;2.58;;;;;;;24.43;57.68;100486.77;2595487;87;21114;-88
2022/08/29 14:55:04;;;;;;;5.75;2.98;;;;;;;24.39;58.00;100491.81;2625352;87;21042;-88
2022/08/29 14:59:05;;;;;;;5.15;2.60;;;;;;;24.55;63.52;100491.02;2614962;88;21078;-88
2022/08/29 15:03:07;;;;;;;13.88;3.37;;;;;;;24.54;59.82;100485.27;2595883;89;21114;-88
2022/08/29 15:07:11;;;;;;;6.35;3.12;;;;;;;24.52;61.72;100481.94;2569054;88;21086;-88
2022/08/29 15:11:13;;;;;;;9.78;3.77;;;;;;;24.49;60.70;100489.16;2571175;89;21058;-88
2022/08/29 15:15:14;;;;;;;5.05;3.58;;;;;;;24.48;58.27;100486.14;2623146;89;21111;-88
2022/08/29 15:19:16;;;;;;;7.90;2.15;;;;;;;24.52;61.72;100488.22;2579884;89;21038;-88
2022/08/29 15:23:17;;;;;;;3.92;3.00;;;;;;;24.45;58.04;100485.20;2563598;90;21110;-88
2022/08/29 15:27:22;;;;;;;5.90;3.08;;;;;;;24.40;61.55;100484.48;2588800;90;21154;-88
2022/08/29 15:31:23;;;;;;;4.72;2.47;;;;;;;24.25;59.16;100480.66;2592623;89;21108;-88
2022/08/29 15:35:25;;;;;;;4.97;2.00;;;;;;;24.37;61.40;100472.67;2544487;91;21130;-88
2022/08/29 15:39:27;;;;;;;4.03;2.85;;;;;;;24.18;62.41;100480.66;2525070;90;21070;-88
2022/08/29 15:43:29;;;;;;;5.35;3.42;;;;;;;24.03;63.98;100483.61;2616678;89;21113;-88
2022/08/29 15:47:31;;;;;;;7.55;2.72;;;;;;;24.14;62.46;100473.98;2566445;90;21087;-88
2022/08/29 15:51:33;;;;;;;3.72;2.00;;;;;;;24.12;62.00;100467.08;2592871;90;21062;-88
2022/08/29 15:55:35;;;;;;;7.28;3.42;;;;;;;24.12;60.44;100469.80;2597568;89;21639;-88
2022/08/29 15:59:36;;;;;;;7.72;2.62;;;;;;;24.09;62.77;100475.97;2585502;89;21105;-88
2022/08/29 16:03:37;;;;;;;15.50;4.28;;;;;;;23.86;61.90;100472.83;2603298;89;21046;-87
2022/08/29 16:07:40;;;;;;;10.10;3.00;;;;;;;23.76;62.97;100474.06;2602023;90;21063;-87
2022/08/29 16:11:44;;;;;;;5.47;2.95;;;;;;;23.69;64.31;100467.81;2588201;89;21191;-87
2022/08/29 16:15:47;;;;;;;3.55;2.40;;;;;;;23.62;62.74;100471.88;2601806;89;21087;-91
2022/08/29 16:19:49;;;;;;;4.90;2.77;;;;;;;23.45;63.59;100469.24;2607958;89;21068;-88
2022/08/29 16:23:51;;;;;;;8.53;3.27;;;;;;;23.31;64.71;100480.61;2585282;89;21046;-90
2022/08/29 16:27:53;;;;;;;3.72;2.45;;;;;;;23.18;66.11;100479.48;2595253;89;21114;-89
2022/08/29 16:31:57;;;;;;;5.08;2.30;;;;;;;23.09;65.98;100484.80;2609176;88;21104;-90
2022/08/29 16:35:59;;;;;;;10.30;3.80;;;;;;;23.02;67.83;100480.70;2635126;88;21035;-89
2022/08/29 16:40:03;;;;;;;4.60;3.00;;;;;;;22.96;68.98;100479.64;2621735;88;21046;-90
2022/08/29 16:44:04;;;;;;;14.68;4.08;;;;;;;22.87;69.65;100480.87;2618742;88;21082;-90
2022/08/29 16:48:06;;;;;;;5.95;2.47;;;;;;;22.71;70.56;100482.06;2584223;88;21078;-89
2022/08/29 16:52:08;;;;;;;7.05;3.17;;;;;;;22.58;69.50;100482.80;2603329;89;21656;-90
2022/08/29 16:56:13;;;;;;;5.40;2.75;;;;;;;22.49;70.48;100484.02;2578555;89;21046;-89
2022/08/29 17:00:15;;;;;;;4.03;3.17;;;;;;;22.35;71.89;100479.84;2570717;90;21074;-89
2022/08/29 17:04:24;;;;;;;6.45;3.33;;;;;;;22.29;73.06;100481.15;2597003;89;21115;-89
2022/08/29 17:16:30;;;;;;;4.10;2.62;;;;;;;22.07;74.77;100488.84;2615493;87;21637;-90
2022/08/29 17:20:31;;;;;;;6.67;2.85;;;;;;;21.94;74.05;100487.37;2606981;88;21195;-90
2022/08/29 17:24:32;;;;;;;5.42;2.52;;;;;;;21.83;74.95;100492.30;2631987;87;21556;-90
2022/08/29 17:28:36;;;;;;;5.22;3.35;;;;;;;21.80;75.65;100501.32;2632353;87;21046;-90
2022/08/29 17:32:38;;;;;;;4.55;2.72;;;;;;;21.73;75.98;100497.20;2620988;89;21565;-91
2022/08/29 17:36:42;;;;;;;5.33;4.17;;;;;;;21.64;80.00;100503.76;2611524;89;21035;-90
2022/08/29 17:40:43;;;;;;;27.37;17.52;;;;;;;21.50;79.86;100502.77;2629389;88;21086;-88
2022/08/29 17:44:44;;;;;;;23.25;15.40;;;;;;;21.44;80.19;100500.84;2613144;89;21074;-89
2022/08/29 17:48:45;;;;;;;11.95;8.93;;;;;;;21.39;80.72;100497.35;2631884;88;21131;-89
2022/08/29 17:52:47;;;;;;;11.80;7.35;;;;;;;21.25;82.24;100509.41;2639510;88;21054;-89
2022/08/29 17:56:55;;;;;;;9.65;6.95;;;;;;;21.15;83.13;100512.09;2597800;89;21058;-89
2022/08/29 18:00:57;;;;;;;14.68;8.93;;;;;;;21.01;83.76;100515.13;2614214;88;21102;-89
2022/08/29 18:04:58;;;;;;;12.03;7.83;;;;;;;20.91;83.45;100521.68;2617703;89;21574;-89
2022/08/29 18:08:59;;;;;;;10.90;9.43;;;;;;;20.86;83.44;100529.53;2615050;89;21081;-89
2022/08/29 18:13:00;;;;;;;9.63;6.20;;;;;;;20.76;83.99;100524.38;2601589;89;21054;-90
2022/08/29 18:17:02;;;;;;;9.20;6.25;;;;;;;20.65;83.80;100525.69;2581795;89;21085;-91
2022/08/29 18:21:03;;;;;;;10.60;6.30;;;;;;;20.57;84.13;100524.41;2602541;89;21105;-90
2022/08/29 18:25:06;;;;;;;12.40;6.33;;;;;;;20.44;84.80;100532.31;2629124;86;21086;-90
2022/08/29 18:29:08;;;;;;;14.63;5.95;;;;;;;20.36;85.04;100536.79;2578736;89;21007;-89
2022/08/29 18:33:11;;;;;;;7.15;5.10;;;;;;;20.33;85.63;100537.66;2627536;88;21046;-89
2022/08/29 18:37:13;;;;;;;11.53;6.17;;;;;;;20.23;86.11;100541.48;2674074;86;21172;-89
2022/08/29 18:41:14;;;;;;;12.30;6.65;;;;;;;20.19;86.51;100552.33;2628261;87;21729;-88
2022/08/29 18:45:15;;;;;;;14.35;5.87;;;;;;;20.17;87.70;100556.22;2671677;87;21014;-90
2022/08/29 18:49:18;;;;;;;5.92;4.30;;;;;;;20.14;87.64;100556.59;2619627;88;21164;-89
2022/08/29 18:53:23;;;;;;;6.25;3.92;;;;;;;20.06;87.91;100556.14;2658814;87;21018;-88
2022/08/29 18:57:26;;;;;;;3.95;3.37;;;;;;;20.01;88.53;100564.78;2636638;87;21146;-88
2022/08/29 19:01:30;;;;;;;5.62;2.98;;;;;;;19.94;88.64;100570.59;2645085;87;21093;-87